Time;durP1;ratioP1;P1;durP2;ratioP2;P2;SDS_P1;SDS_P2;PMS_P1;PMS_P2;Temp;Humidity;BMP_temperature;BMP_pressure;BME280_temperature;BME280_humidity;BME280_pressure;Samples;Min_cycle;Max_cycle;Signal;HPM_P1;HPM_P2
2022/05/11 00:00:43;;;;;;;8.20;1.42;;;;;;;-142.75;100.00;76739.59;5049603;28;19912;-67
2022/05/11 00:03:08;;;;;;;3.45;1.30;;;;;;;-142.75;100.00;76727.78;5067259;28;20536;-67
2022/05/11 00:05:34;;;;;;;;;;;;;;;-142.75;100.00;76735.66;5065807;28;20103;-67
2022/05/11 00:07:59;;;;;;;9.93;1.45;;;;;;;-142.75;100.00;76727.78;5066992;28;19912;-67
2022/05/11 00:10:25;;;;;;;;;;;;;;;-142.75;100.00;76723.84;5065041;28;20027;-67
2022/05/11 00:12:50;;;;;;;5.82;1.48;;;;;;;-142.75;100.00;76723.84;5067375;28;19916;-67
2022/05/11 00:15:17;;;;;;;;;;;;;;;-142.75;100.00;76723.84;5067724;28;20021;-67
2022/05/11 00:17:42;;;;;;;4.40;1.42;;;;;;;-142.75;100.00;76725.81;5065186;28;19913;-66
2022/05/11 00:20:09;;;;;;;;;;;;;;;-142.75;100.00;76727.78;5066924;28;20111;-67
2022/05/11 00:22:35;;;;;;;7.07;1.60;;;;;;;-142.75;100.00;76729.75;5066672;28;19956;-67
2022/05/11 00:25:03;;;;;;;6.78;1.65;;;;;;;-142.75;100.00;76727.78;5066275;28;20036;-66
2022/05/11 00:27:28;;;;;;;7.75;1.67;;;;;;;-142.75;100.00;76731.72;5066838;28;20058;-67
2022/05/11 00:29:54;;;;;;;6.13;1.70;;;;;;;-142.75;100.00;76735.66;5066857;28;20025;-67
2022/05/11 00:32:19;;;;;;;;;;;;;;;-142.75;100.00;76727.78;5047506;28;20027;-67
2022/05/11 00:34:44;;;;;;;6.32;1.77;;;;;;;-142.75;100.00;76723.84;5066474;28;20388;-67
2022/05/11 00:37:09;;;;;;;;;;;;;;;-142.75;100.00;76731.72;5065037;28;20495;-67
2022/05/11 00:39:35;;;;;;;7.10;1.65;;;;;;;-142.75;100.00;76731.72;5065801;28;19916;-67
2022/05/11 00:42:01;;;;;;;;;;;;;;;-142.75;100.00;76731.72;5064664;28;20063;-67
2022/05/11 00:44:27;;;;;;;13.52;1.80;;;;;;;-142.75;100.00;76725.81;5066476;28;19916;-69
2022/05/11 00:47:07;;;;;;;8.57;1.70;;;;;;;-142.75;100.00;76729.75;5064264;28;20028;-69
2022/05/11 00:49:43;;;;;;;7.57;1.77;;;;;;;-142.75;100.00;76727.78;5065637;28;20036;-67
2022/05/11 00:52:48;;;;;;;7.83;1.30;;;;;;;-142.75;100.00;76725.81;5066693;28;20086;-67
2022/05/11 00:55:19;;;;;;;6.55;2.10;;;;;;;-142.75;100.00;76712.03;5060127;28;20115;-67
2022/05/11 00:57:50;;;;;;;7.72;1.67;;;;;;;-142.75;100.00;76708.09;5065984;28;20424;-66
2022/05/11 01:00:17;;;;;;;7.45;1.70;;;;;;;-142.75;100.00;76708.09;5064866;28;20040;-66
2022/05/11 01:02:44;;;;;;;10.63;2.28;;;;;;;-142.75;100.00;76702.19;5066524;28;20450;-67
2022/05/11 01:05:10;;;;;;;5.60;1.88;;;;;;;-142.75;100.00;76700.22;5066475;28;20040;-67
2022/05/11 01:07:36;;;;;;;9.23;2.10;;;;;;;-142.75;100.00;76692.34;5064493;28;20024;-67
2022/05/11 01:10:03;;;;;;;;;;;;;;;-142.75;100.00;76686.44;5047655;28;20493;-66
2022/05/11 01:12:35;;;;;;;6.75;1.70;;;;;;;-142.75;100.00;76684.47;5066259;28;20259;-67
2022/05/11 01:15:04;;;;;;;7.13;1.90;;;;;;;-142.75;100.00;76684.47;5064459;28;20474;-67
2022/05/11 01:17:29;;;;;;;6.28;2.17;;;;;;;-142.75;100.00;76684.47;5066172;28;20032;-67
2022/05/11 01:19:55;;;;;;;;;;;;;;;-142.75;100.00;76674.63;5066322;28;20036;-67
2022/05/11 01:22:43;;;;;;;5.95;1.80;;;;;;;-142.75;100.00;76674.63;5063748;28;19963;-66
2022/05/11 01:25:10;;;;;;;6.78;2.45;;;;;;;-142.75;100.00;76672.66;5065137;28;20032;-67
2022/05/11 01:27:40;;;;;;;8.00;2.20;;;;;;;-142.75;100.00;76672.66;5064118;28;20020;-67
2022/05/11 01:30:17;;;;;;;7.55;2.30;;;;;;;-142.75;100.00;76676.59;5065594;28;20028;-66
2022/05/11 01:32:46;;;;;;;5.20;2.00;;;;;;;-142.75;100.00;76678.56;5065900;28;20036;-67
2022/05/11 01:35:33;;;;;;;7.65;2.22;;;;;;;-142.75;100.00;76674.63;5065794;28;20024;-66
2022/05/11 01:38:18;;;;;;;4.97;1.90;;;;;;;-142.75;100.00;76684.47;5063575;28;20036;-67
2022/05/11 01:40:43;;;;;;;8.52;2.10;;;;;;;-142.75;100.00;76680.53;5048472;28;20028;-67
2022/05/11 01:43:13;;;;;;;;;;;;;;;-142.75;100.00;76684.47;5047289;28;20544;-67
2022/05/11 01:45:38;;;;;;;7.22;1.30;;;;;;;-142.75;100.00;76686.44;5064835;28;20385;-67
2022/05/11 01:48:04;;;;;;;;;;;;;;;-142.75;100.00;76690.38;5065635;28;20016;-66
2022/05/11 01:50:29;;;;;;;9.75;1.98;;;;;;;-142.75;100.00;76682.50;5062080;28;20376;-66
2022/05/11 01:52:55;;;;;;;;;;;;;;;-142.75;100.00;76688.41;5063717;28;20051;-67
2022/05/11 01:55:20;;;;;;;6.18;1.60;;;;;;;-142.75;100.00;76686.44;5065048;28;20259;-67
2022/05/11 01:57:45;;;;;;;;;;;;;;;-142.75;100.00;76686.44;5063214;28;20036;-66
2022/05/11 02:00:11;;;;;;;4.43;1.25;;;;;;;-142.75;100.00;76682.50;5065070;28;19912;-67
2022/05/11 02:02:37;;;;;;;;;;;;;;;-142.75;100.00;76686.44;5045274;28;20713;-67
2022/05/11 02:07:51;;;;;;;6.65;1.48;;;;;;;-142.75;100.00;76684.47;5063671;28;20071;-66
2022/05/11 02:10:17;;;;;;;5.68;1.60;;;;;;;-142.75;100.00;76684.47;5064265;28;20020;-67
2022/05/11 02:12:43;;;;;;;3.97;1.35;;;;;;;-142.75;100.00;76684.47;5046439;28;20042;-67
2022/05/11 02:15:09;;;;;;;5.35;1.08;;;;;;;-142.75;100.00;76684.47;5046841;28;20020;-67
2022/05/11 02:17:34;;;;;;;;;;;;;;;-142.75;100.00;76680.53;5063001;28;20024;-67
2022/05/11 02:19:59;;;;;;;8.13;0.93;;;;;;;-142.75;100.00;76680.53;5064611;28;19919;-67
2022/05/11 02:22:24;;;;;;;;;;;;;;;-142.75;100.00;76678.56;5062639;28;20494;-66
2022/05/11 02:24:50;;;;;;;7.68;1.05;;;;;;;-142.75;100.00;76684.47;5064984;28;20005;-67
2022/05/11 02:27:15;;;;;;;;;;;;;;;-142.75;100.00;76680.53;5063913;28;20032;-67
2022/05/11 02:29:40;;;;;;;5.50;1.30;;;;;;;-142.75;100.00;76676.59;5063679;28;19923;-66
2022/05/11 02:32:06;;;;;;;;;;;;;;;-142.75;100.00;76666.75;5064976;28;20054;-67
2022/05/11 02:37:15;;;;;;;6.30;1.20;;;;;;;-142.75;100.00;76654.94;5064819;28;20183;-67
2022/05/11 02:39:40;;;;;;;13.40;1.17;;;;;;;-142.75;100.00;76660.84;5064332;28;20116;-67
2022/05/11 02:42:05;;;;;;;;;;;;;;;-142.75;100.00;76658.88;5044874;28;20031;-67
2022/05/11 02:44:31;;;;;;;3.85;0.65;;;;;;;-142.75;100.00;76660.84;5064204;28;19943;-67
2022/05/11 02:46:56;;;;;;;;;;;;;;;-142.75;100.00;76666.75;5062409;28;20070;-67
2022/05/11 02:49:22;;;;;;;2.45;0.75;;;;;;;-142.75;100.00;76660.84;5064320;28;19946;-67
2022/05/11 02:51:47;;;;;;;;;;;;;;;-142.75;100.00;76660.84;5064980;28;20075;-67
2022/05/11 02:54:12;;;;;;;4.45;0.68;;;;;;;-142.75;100.00;76660.84;5062247;28;19912;-66
2022/05/11 02:56:38;;;;;;;;;;;;;;;-142.75;100.00;76664.78;5064547;28;20032;-67
2022/05/11 02:59:03;;;;;;;6.55;0.95;;;;;;;-142.75;100.00;76666.75;5061641;28;19912;-67
2022/05/11 03:01:28;;;;;;;;;;;;;;;-142.75;100.00;76668.72;5064591;28;20028;-67
2022/05/11 03:03:54;;;;;;;4.63;0.60;;;;;;;-142.75;100.00;76660.84;5061715;28;19963;-67
2022/05/11 03:06:20;;;;;;;6.15;1.05;;;;;;;-142.75;100.00;76658.88;5064405;28;20055;-67
2022/05/11 03:08:46;;;;;;;3.75;1.05;;;;;;;-142.75;100.00;76660.84;5064249;28;20066;-67
2022/05/11 03:11:11;;;;;;;3.30;0.80;;;;;;;-142.75;100.00;76652.97;5062047;28;20024;-66
2022/05/11 03:13:37;;;;;;;6.35;0.70;;;;;;;-142.75;100.00;76660.84;5063703;28;20012;-67
2022/05/11 03:16:02;;;;;;;3.83;0.80;;;;;;;-142.75;100.00;76652.97;5062000;28;20065;-67
2022/05/11 03:18:27;;;;;;;4.88;0.90;;;;;;;-142.75;100.00;76649.03;5063666;28;20029;-67
2022/05/11 03:20:56;;;;;;;;;;;;;;;-142.75;100.00;76649.03;5062135;28;20036;-67
2022/05/11 03:23:22;;;;;;;11.23;1.20;;;;;;;-142.75;100.00;76652.97;5063554;28;19912;-67
2022/05/11 03:25:47;;;;;;;4.28;0.93;;;;;;;-142.75;100.00;76645.09;5044090;28;20020;-66
2022/05/11 03:28:12;;;;;;;;;;;;;;;-142.75;100.00;76647.06;5063879;28;20600;-66
2022/05/11 03:30:37;;;;;;;2.85;0.60;;;;;;;-142.75;100.00;76645.09;5061621;28;19913;-67
2022/05/11 03:35:46;;;;;;;3.05;0.55;;;;;;;-142.75;100.00;76641.16;5062670;28;20361;-67
2022/05/11 03:38:12;;;;;;;5.78;0.70;;;;;;;-142.75;100.00;76637.22;5062879;28;20044;-67
2022/05/11 03:43:05;;;;;;;;;;;;;;;-142.75;100.00;76637.22;5045214;28;19931;-67
2022/05/11 03:45:31;;;;;;;6.13;0.77;;;;;;;-142.75;100.00;76641.16;5049132;28;19917;-67
2022/05/11 03:47:56;;;;;;;6.35;0.68;;;;;;;-142.75;100.00;76641.16;5049943;28;20425;-71
2022/05/11 03:50:22;;;;;;;;;;;;;;;-142.75;100.00;76641.16;5051040;28;20493;-70
2022/05/11 03:52:52;;;;;;;5.80;1.25;;;;;;;-142.75;100.00;76641.16;5050199;28;19913;-70
2022/05/11 03:55:20;;;;;;;7.22;1.23;;;;;;;-142.75;100.00;76645.09;5050095;28;20047;-69
2022/05/11 03:57:46;;;;;;;5.93;0.93;;;;;;;-142.75;100.00;76643.13;5050070;28;20378;-70
2022/05/11 04:00:15;;;;;;;3.58;0.90;;;;;;;-142.75;100.00;76637.22;5049873;28;20039;-72
2022/05/11 04:02:42;;;;;;;5.40;1.08;;;;;;;-142.75;100.00;76633.28;5049980;28;20033;-69
2022/05/11 04:05:09;;;;;;;3.65;0.98;;;;;;;-142.75;100.00;76637.22;5050517;28;20028;-70
2022/05/11 04:07:35;;;;;;;4.45;0.73;;;;;;;-142.75;100.00;76637.22;5049987;28;20092;-70
2022/05/11 04:10:01;;;;;;;4.43;0.98;;;;;;;-142.75;100.00;76637.22;5049752;28;20045;-70
2022/05/11 04:12:29;;;;;;;4.50;0.93;;;;;;;-142.75;100.00;76637.22;5049970;28;20544;-70
2022/05/11 04:14:55;;;;;;;6.45;0.82;;;;;;;-142.75;100.00;76633.28;5052911;28;20058;-70
2022/05/11 04:17:21;;;;;;;3.45;0.88;;;;;;;-142.75;100.00;76639.19;5052315;28;20028;-70
2022/05/11 04:19:46;;;;;;;5.93;0.93;;;;;;;-142.75;100.00;76639.19;5053333;28;20048;-69
2022/05/11 04:22:11;;;;;;;;;;;;;;;-142.75;100.00;76643.13;5053873;28;20127;-70
2022/05/11 04:24:36;;;;;;;6.95;0.95;;;;;;;-142.75;100.00;76645.09;5053316;28;19916;-69
2022/05/11 04:27:02;;;;;;;;;;;;;;;-142.75;100.00;76647.06;5053904;28;20033;-70
2022/05/11 04:29:27;;;;;;;4.25;0.80;;;;;;;-142.75;100.00;76651.00;5053136;28;19919;-72
2022/05/11 04:31:54;;;;;;;2.67;0.82;;;;;;;-142.75;100.00;76647.06;5053457;28;20166;-69
2022/05/11 04:34:19;;;;;;;6.03;0.95;;;;;;;-142.75;100.00;76660.84;5053222;28;20021;-69
2022/05/11 04:36:44;;;;;;;2.05;0.70;;;;;;;-142.75;100.00;76664.78;5053364;28;20046;-69
2022/05/11 04:39:10;;;;;;;;;;;;;;;-142.75;100.00;76670.69;5053266;28;20024;-72
2022/05/11 04:41:35;;;;;;;3.38;0.50;;;;;;;-142.75;100.00;76676.59;5052189;28;19996;-69
2022/05/11 04:44:00;;;;;;;;;;;;;;;-142.75;100.00;76676.59;5052220;28;20505;-72
2022/05/11 04:46:25;;;;;;;6.82;0.70;;;;;;;-142.75;100.00;76670.69;5051904;28;19913;-69
2022/05/11 04:49:16;;;;;;;;;;;;;;;-142.75;100.00;76668.72;5053155;28;20033;-72
2022/05/11 04:51:36;;;;;;;3.83;0.50;;;;;;;-142.75;100.00;76666.75;5052689;28;19951;-68
2022/05/11 04:54:02;;;;;;;3.92;1.05;;;;;;;-142.75;100.00;76662.81;5051797;28;20049;-69
2022/05/11 04:56:27;;;;;;;3.00;0.60;;;;;;;-142.75;100.00;76664.78;5052950;28;20025;-71
2022/05/11 04:58:57;;;;;;;;;;;;;;;-142.75;100.00;76654.94;5053013;28;20027;-69
2022/05/11 05:01:24;;;;;;;3.03;0.50;;;;;;;-142.75;100.00;76656.91;5051603;28;19916;-69
2022/05/11 05:03:49;;;;;;;4.05;0.63;;;;;;;-142.75;100.00;76651.00;5052637;28;20021;-68
2022/05/11 05:06:15;;;;;;;1.17;0.40;;;;;;;-142.75;100.00;76654.94;5051360;28;20025;-69
2022/05/11 05:08:40;;;;;;;;;;;;;;;-142.75;100.00;76651.00;5052791;28;20033;-73
2022/05/11 05:11:05;;;;;;;5.43;0.98;;;;;;;-142.75;100.00;76656.91;5052566;28;20413;-69
2022/05/11 05:13:30;;;;;;;;;;;;;;;-142.75;100.00;76664.78;5052047;28;20039;-70
2022/05/11 05:15:59;;;;;;;5.38;0.52;;;;;;;-142.75;100.00;76660.84;5052338;28;20294;-69
2022/05/11 05:18:24;;;;;;;8.18;1.13;;;;;;;-142.75;100.00;76649.03;5051982;28;20486;-68
2022/05/11 05:20:50;;;;;;;3.83;0.77;;;;;;;-142.75;100.00;76631.31;5050537;28;20040;-69
2022/05/11 05:23:15;;;;;;;;;;;;;;;-142.75;100.00;76617.53;5050970;28;20047;-72
2022/05/11 05:25:40;;;;;;;3.20;0.47;;;;;;;-142.75;100.00;76597.84;5051007;28;19912;-68
2022/05/11 05:31:05;;;;;;;4.28;1.00;;;;;;;-142.75;100.00;76601.78;5052234;28;20051;-69
2022/05/11 05:33:31;;;;;;;5.03;0.75;;;;;;;-142.75;100.00;76603.75;5052180;28;20044;-69
2022/05/11 05:35:57;;;;;;;3.40;0.80;;;;;;;-142.75;100.00;76591.94;5051975;28;20024;-69
2022/05/11 05:38:22;;;;;;;2.25;0.40;;;;;;;-142.75;100.00;76574.22;5051896;28;20025;-70
2022/05/11 05:40:47;;;;;;;;;;;;;;;-142.75;100.00;76546.66;5052252;28;20056;-69
2022/05/11 05:43:13;;;;;;;3.83;0.65;;;;;;;-142.75;100.00;76532.88;5052093;28;19913;-70
2022/05/11 05:45:38;;;;;;;;;;;;;;;-142.75;100.00;76511.25;5052190;28;20021;-69
2022/05/11 05:48:03;;;;;;;3.60;0.50;;;;;;;-142.75;100.00;76487.63;5051513;28;20266;-69
2022/05/11 05:50:28;;;;;;;;;;;;;;;-142.75;100.00;76464.00;5051054;28;20113;-69
2022/05/11 05:52:55;;;;;;;5.03;0.70;;;;;;;-142.75;100.00;76450.22;5051646;28;19912;-69
2022/05/11 05:55:21;;;;;;;3.13;0.40;;;;;;;-142.75;100.00;76440.38;5051865;28;20024;-69
2022/05/11 05:57:47;;;;;;;;;;;;;;;-142.75;100.00;76416.75;5050620;28;20379;-69
2022/05/11 06:00:13;;;;;;;5.70;0.65;;;;;;;-142.75;100.00;76391.16;5051552;28;20293;-70
2022/05/11 06:02:38;;;;;;;;;;;;;;;-142.75;100.00;76383.28;5051801;28;20021;-70
2022/05/11 06:05:03;;;;;;;4.63;0.88;;;;;;;-142.75;100.00;76371.47;5051577;28;19916;-69
2022/05/11 06:07:29;;;;;;;;;;;;;;;-142.75;100.00;76387.22;5051899;28;20028;-69
2022/05/11 06:09:54;;;;;;;7.07;0.63;;;;;;;-142.75;100.00;76387.22;5051231;28;19913;-69
2022/05/11 06:12:19;;;;;;;;;;;;;;;-142.75;100.00;76389.19;5050463;28;20039;-73
2022/05/11 06:14:45;;;;;;;6.35;0.70;;;;;;;-142.75;100.00;76377.38;5051445;28;20349;-69
2022/05/11 06:17:15;;;;;;;;;;;;;;;-142.75;100.00;76399.03;5051409;28;20040;-69
2022/05/11 06:19:41;;;;;;;2.90;0.70;;;;;;;-142.75;100.00;76434.47;5050873;28;19958;-69
2022/05/11 06:22:06;;;;;;;;;;;;;;;-142.75;100.00;76444.31;5050258;28;20117;-69
2022/05/11 06:24:31;;;;;;;6.15;0.85;;;;;;;-142.75;100.00;76456.13;5051339;28;19924;-74
2022/05/11 06:26:56;;;;;;;;;;;;;;;-142.75;100.00;76458.09;5051709;28;20029;-71
2022/05/11 06:29:22;;;;;;;5.75;0.77;;;;;;;-142.75;100.00;76456.13;5050971;28;19912;-75
2022/05/11 06:31:47;;;;;;;;;;;;;;;-142.75;100.00;76438.41;5050073;28;20028;-70
2022/05/11 06:34:12;;;;;;;6.80;0.93;;;;;;;-142.75;100.00;76426.59;5049741;28;19917;-70
2022/05/11 06:36:37;;;;;;;;;;;;;;;-142.75;100.00;76436.44;5049246;28;20039;-69
2022/05/11 06:39:03;;;;;;;6.07;0.73;;;;;;;-142.75;100.00;76456.13;5049796;28;19966;-76
2022/05/11 06:41:28;;;;;;;;;;;;;;;-142.75;100.00;76452.19;5049131;28;20063;-70
2022/05/11 06:43:54;;;;;;;7.47;0.93;;;;;;;-142.75;100.00;76448.25;5049886;28;20318;-75
2022/05/11 06:46:20;;;;;;;;;;;;;;;-142.75;100.00;76446.28;5049182;28;20406;-70
2022/05/11 06:48:45;;;;;;;3.58;0.60;;;;;;;-142.75;100.00;76467.94;5049693;28;19925;-71
2022/05/11 06:51:11;;;;;;;;;;;;;;;-142.75;100.00;76432.50;5049225;28;20083;-69
2022/05/11 06:59:24;;;;;;;4.90;0.80;;;;;;;-142.75;100.00;76286.84;5049232;28;20509;-70
2022/05/11 07:01:53;;;;;;;3.25;0.70;;;;;;;-142.75;100.00;76294.72;5049649;28;20029;-70
2022/05/11 07:04:22;;;;;;;3.55;0.90;;;;;;;-142.75;100.00;76314.41;5049800;28;20108;-73
2022/05/11 07:06:48;;;;;;;6.70;0.93;;;;;;;-142.75;100.00;76282.91;5049530;28;20028;-70
2022/05/11 07:09:13;;;;;;;;;;;;;;;-142.75;100.00;76231.72;5049418;28;20397;-70
2022/05/11 07:14:22;;;;;;;3.50;0.70;;;;;;;-142.75;96.53;76172.69;5049971;28;20613;-70
2022/05/11 07:16:48;;;;;;;;;;;;;;;-142.75;90.40;76168.75;5050112;28;20033;-70
2022/05/11 07:19:13;;;;;;;4.32;0.50;;;;;;;-142.75;94.34;76156.94;5049147;28;19913;-73
2022/05/11 07:21:38;;;;;;;;;;;;;;;-142.75;96.01;76156.94;5049623;28;20065;-69
2022/05/11 07:24:04;;;;;;;3.75;0.65;;;;;;;-142.75;97.19;76154.97;5049381;28;20294;-72
2022/05/11 07:26:29;;;;;;;5.90;0.80;;;;;;;-142.75;94.56;76133.31;5048314;28;20025;-69
2022/05/11 07:28:54;;;;;;;2.65;0.40;;;;;;;-142.75;91.97;76103.78;5049363;28;20040;-74
2022/05/11 07:31:19;;;;;;;;;;;;;;;-142.75;93.08;76072.31;5049866;28;20098;-70
2022/05/11 07:33:45;;;;;;;3.63;0.47;;;;;;;-142.75;90.98;76074.25;5049379;28;19913;-70
2022/05/11 07:36:10;;;;;;;;;;;;;;;-142.75;91.25;76088.03;5048499;28;20549;-74
2022/05/11 07:38:38;;;;;;;2.28;0.65;;;;;;;-142.75;89.13;76042.78;5049164;28;19916;-70
2022/05/11 07:41:05;;;;;;;2.90;0.63;;;;;;;-142.75;91.14;76040.81;5049202;28;20486;-75
2022/05/11 07:43:30;;;;;;;2.28;0.60;;;;;;;-142.75;89.03;76019.16;5048246;28;20146;-69
2022/05/11 07:45:55;;;;;;;4.68;0.75;;;;;;;-142.75;86.88;76003.41;5047854;28;20108;-70
2022/05/11 07:48:21;;;;;;;3.67;0.90;;;;;;;-142.75;84.72;76019.16;5049660;28;20083;-74
2022/05/11 07:50:46;;;;;;;4.20;0.70;;;;;;;-142.75;83.97;76038.84;5052765;28;20578;-70
2022/05/11 07:53:11;;;;;;;;;;;;;;;-142.75;81.20;76042.78;5052459;28;20122;-70
2022/05/11 07:55:37;;;;;;;1.70;0.43;;;;;;;-142.75;79.69;75997.50;5051835;28;19913;-70
2022/05/11 08:00:47;;;;;;;2.72;0.60;;;;;;;-142.75;75.99;75944.38;5052982;28;20110;-70
2022/05/11 08:03:12;;;;;;;4.88;0.70;;;;;;;-142.75;76.88;75920.75;5052760;28;20112;-70
2022/05/11 08:05:38;;;;;;;;;;;;;;;-142.75;76.51;75877.44;5053226;28;20037;-69
2022/05/11 08:08:06;;;;;;;4.03;0.50;;;;;;;-142.75;72.37;75893.19;5052589;28;19935;-69
2022/05/11 08:10:35;;;;;;;6.50;0.80;;;;;;;-142.75;73.71;75883.34;5052931;28;20039;-70
2022/05/11 08:13:05;;;;;;;1.95;0.77;;;;;;;-142.75;73.96;75845.97;5052672;28;20025;-70
2022/05/11 08:15:32;;;;;;;4.70;0.50;;;;;;;-142.75;73.98;75857.78;5050747;28;20017;-70
2022/05/11 08:17:57;;;;;;;6.82;1.05;;;;;;;-142.75;71.22;75838.09;5052442;28;20059;-68
2022/05/11 08:20:32;;;;;;;10.65;1.40;;;;;;;-142.75;72.12;75820.38;5050980;28;20265;-73
2022/05/11 08:22:58;;;;;;;4.95;0.60;;;;;;;-142.75;72.43;75849.91;5051560;28;20514;-68
2022/05/11 08:25:27;;;;;;;9.98;1.10;;;;;;;-142.75;73.85;75806.59;5052613;28;20033;-70
2022/05/11 08:27:53;;;;;;;5.82;1.30;;;;;;;-142.75;76.95;75767.22;5052066;28;20021;-72
2022/05/11 08:33:26;;;;;;;5.60;1.33;;;;;;;-142.75;74.26;75735.75;5052292;28;20521;-71
2022/05/11 08:35:58;;;;;;;9.10;0.90;;;;;;;-142.75;72.79;75714.09;5050906;28;20012;-69
2022/05/11 08:38:25;;;;;;;11.15;1.20;;;;;;;-142.75;69.96;75753.47;5052023;28;20025;-70
2022/05/11 08:41:05;;;;;;;7.15;1.15;;;;;;;-142.75;73.72;75735.75;5051936;28;20021;-73
2022/05/11 08:43:32;;;;;;;3.97;1.20;;;;;;;-142.75;74.84;75739.69;5052132;28;20029;-70
2022/05/11 08:46:09;;;;;;;4.10;1.65;;;;;;;-142.75;74.32;75712.13;5052507;28;20367;-71
2022/05/11 08:49:01;;;;;;;5.95;1.00;;;;;;;-142.75;71.35;75743.63;5049710;28;20060;-69
2022/05/11 08:51:50;;;;;;;6.90;1.08;;;;;;;-142.75;74.44;75723.94;5051935;28;20440;-71
2022/05/11 08:54:23;;;;;;;6.07;1.00;;;;;;;-142.75;74.69;75771.16;5051482;28;20087;-69
2022/05/11 08:56:49;;;;;;;7.95;1.35;;;;;;;-142.75;77.40;75731.81;5052134;28;20032;-69
2022/05/11 08:59:19;;;;;;;8.43;1.58;;;;;;;-142.75;75.67;75716.06;5051349;28;20441;-69
2022/05/11 09:01:59;;;;;;;7.63;1.20;;;;;;;-142.75;76.67;75696.38;5051655;28;20064;-70
2022/05/11 09:04:38;;;;;;;7.07;1.10;;;;;;;-142.75;76.49;75660.97;5051774;28;20054;-71
2022/05/11 09:07:03;;;;;;;6.82;1.48;;;;;;;-142.75;75.09;75641.28;5051709;28;20513;-68
2022/05/11 09:09:29;;;;;;;5.13;1.17;;;;;;;-142.75;75.35;75611.75;5050737;28;20033;-69
2022/05/11 09:11:54;;;;;;;7.60;1.23;;;;;;;-142.75;73.36;75637.34;5051424;28;20017;-69
2022/05/11 09:14:31;;;;;;;8.52;1.50;;;;;;;-142.75;76.59;75609.78;5051887;28;20047;-69
2022/05/11 09:16:56;;;;;;;9.63;1.50;;;;;;;-142.75;73.63;75625.53;5051708;28;20123;-68
2022/05/11 09:19:26;;;;;;;7.15;1.13;;;;;;;-142.75;73.26;75590.13;5051272;28;20115;-70
2022/05/11 09:21:55;;;;;;;8.07;1.00;;;;;;;-142.75;72.72;75558.63;5051355;28;20024;-68
2022/05/11 09:24:27;;;;;;;5.80;1.20;;;;;;;-142.75;71.44;75584.22;5051560;28;20052;-68
2022/05/11 09:27:20;;;;;;;10.55;1.92;;;;;;;-142.75;71.00;75582.25;5051588;28;20021;-68
2022/05/11 09:29:45;;;;;;;7.60;0.93;;;;;;;-142.75;70.14;75582.25;5051165;28;20036;-68
2022/05/11 09:32:23;;;;;;;11.95;1.88;;;;;;;-142.75;68.40;75584.22;5051328;28;20025;-69
2022/05/11 09:34:48;;;;;;;7.88;1.42;;;;;;;-142.75;69.25;75582.25;5051778;28;20498;-68
2022/05/11 09:37:28;;;;;;;3.97;0.77;;;;;;;-142.75;67.12;75594.06;5051049;28;20108;-68
2022/05/11 09:40:05;;;;;;;14.25;1.27;;;;;;;-142.75;66.14;75572.41;5051011;28;20029;-68
2022/05/11 09:42:32;;;;;;;5.72;1.05;;;;;;;-142.75;67.88;75586.19;5050949;28;20131;-72
2022/05/11 09:44:59;;;;;;;6.20;1.08;;;;;;;-142.75;67.28;75570.44;5051124;28;20047;-68
2022/05/11 09:47:31;;;;;;;7.40;1.58;;;;;;;-142.75;67.80;75515.31;5050950;28;20033;-69
2022/05/11 09:50:18;;;;;;;4.40;1.20;;;;;;;-142.75;65.82;75483.84;5049793;28;20025;-69
2022/05/11 09:52:45;;;;;;;10.48;1.00;;;;;;;-142.75;64.27;75517.28;5050988;28;20028;-71
2022/05/11 09:55:31;;;;;;;6.50;1.00;;;;;;;-142.75;65.50;75536.97;5051092;28;20521;-70
2022/05/11 09:58:06;;;;;;;4.82;0.70;;;;;;;-142.75;64.65;75519.25;5049139;28;20024;-72
2022/05/11 10:00:36;;;;;;;6.85;1.30;;;;;;;-142.75;64.09;75487.78;5050958;28;20033;-68
2022/05/11 10:03:16;;;;;;;3.90;0.85;;;;;;;-142.75;64.35;75501.56;5050895;28;20025;-68
2022/05/11 10:05:47;;;;;;;3.50;0.77;;;;;;;-142.75;63.08;75509.44;5050624;28;20028;-69
2022/05/11 10:08:43;;;;;;;3.47;0.90;;;;;;;-142.75;63.94;75515.31;5049243;28;20025;-68
2022/05/11 10:11:28;;;;;;;7.70;0.98;;;;;;;-142.75;63.61;75527.13;5046440;28;20128;-71
2022/05/11 10:21:49;;;;;;;6.82;0.73;;;;;;;-142.75;64.07;75531.06;5050954;28;20128;-71
2022/05/11 10:22:25;;;;;;;2.85;0.68;;;;;;;-142.75;63.61;75489.75;5050758;28;20087;-69
2022/05/11 10:25:09;;;;;;;6.03;0.85;;;;;;;-142.75;63.86;75470.06;5050461;28;20017;-68
2022/05/11 10:27:43;;;;;;;3.00;0.80;;;;;;;-142.75;62.16;75475.97;5050530;28;20061;-69
2022/05/11 10:30:18;;;;;;;2.65;0.65;;;;;;;-142.75;62.41;75452.34;5050181;28;20553;-71
2022/05/11 10:32:54;;;;;;;5.55;0.95;;;;;;;-142.75;61.99;75511.41;5049255;28;20020;-67
2022/05/11 10:35:39;;;;;;;7.93;0.73;;;;;;;-142.75;62.67;75475.97;5049709;28;20021;-68
2022/05/11 10:38:20;;;;;;;5.07;0.70;;;;;;;-142.75;63.12;75479.91;5050232;28;20021;-67
2022/05/11 10:40:57;;;;;;;5.07;0.93;;;;;;;-142.75;63.85;75468.09;5049852;28;20421;-72
2022/05/11 10:43:26;;;;;;;9.43;1.40;;;;;;;-142.75;64.84;75550.75;5050093;28;20029;-68
2022/05/11 10:46:05;;;;;;;10.25;1.70;;;;;;;-142.75;66.33;75527.13;5050074;28;20029;-71
2022/05/11 10:49:05;;;;;;;4.10;0.85;;;;;;;-142.75;64.59;75525.16;5049899;28;20029;-68
2022/05/11 10:51:48;;;;;;;3.85;1.20;;;;;;;-142.75;62.93;75477.94;5050158;28;20398;-68
2022/05/11 10:54:41;;;;;;;4.50;1.10;;;;;;;-142.75;62.81;75479.91;5050179;28;20521;-68
2022/05/11 10:57:09;;;;;;;4.63;0.70;;;;;;;-142.75;63.86;75472.03;5050084;28;20020;-68
2022/05/11 10:59:48;;;;;;;5.82;0.95;;;;;;;-142.75;63.64;75420.88;5049865;28;20063;-68
2022/05/11 11:02:31;;;;;;;5.68;1.10;;;;;;;-142.75;62.49;75385.44;5049990;28;20501;-69
2022/05/11 11:05:18;;;;;;;3.10;0.60;;;;;;;-142.75;59.29;75361.84;5049880;28;20032;-71
2022/05/11 11:08:10;;;;;;;7.38;1.00;;;;;;;-142.75;60.04;75369.69;5049934;28;20025;-72
2022/05/11 11:11:00;;;;;;;2.50;0.73;;;;;;;-142.75;59.69;75424.81;5050349;28;20040;-68
2022/05/11 11:13:31;;;;;;;3.05;0.60;;;;;;;-142.75;59.12;75403.16;5049733;28;20044;-68
2022/05/11 11:15:57;;;;;;;7.18;0.85;;;;;;;-142.75;61.00;75377.56;5049808;28;20075;-68
2022/05/11 11:18:36;;;;;;;6.40;0.90;;;;;;;-142.75;58.45;75383.47;5049745;28;20500;-75
2022/05/11 11:21:02;;;;;;;5.80;0.80;;;;;;;-142.75;58.82;75361.84;5049373;28;20056;-68
2022/05/11 11:23:34;;;;;;;7.53;1.02;;;;;;;-142.75;58.91;75324.44;5052094;28;20079;-69
2022/05/11 11:26:23;;;;;;;5.60;1.08;;;;;;;-142.75;58.41;75298.84;5054368;28;20046;-68
2022/05/11 11:29:11;;;;;;;4.68;0.90;;;;;;;-142.75;62.11;75312.63;5016201;28;20504;-68
2022/05/11 11:32:04;;;;;;;2.15;0.68;;;;;;;-142.75;58.94;75263.44;5053416;28;20037;-69
2022/05/11 11:34:32;;;;;;;4.38;1.15;;;;;;;-142.75;58.79;75296.88;5053277;28;20024;-69
2022/05/11 11:36:59;;;;;;;3.78;0.63;;;;;;;-142.75;59.45;75296.88;5053749;28;20110;-71
2022/05/11 11:39:48;;;;;;;7.18;1.20;;;;;;;-142.75;56.57;75316.56;5052162;28;20036;-69
2022/05/11 11:42:28;;;;;;;5.60;1.25;;;;;;;-142.75;56.69;75259.50;5052285;28;20067;-69
2022/05/11 11:44:54;;;;;;;4.22;0.82;;;;;;;-142.75;58.32;75229.97;5053565;28;20029;-71
2022/05/11 11:47:26;;;;;;;5.68;1.17;;;;;;;-142.75;56.09;75235.88;5053366;28;20429;-68
2022/05/11 11:49:53;;;;;;;7.95;1.30;;;;;;;-142.75;58.41;75228.00;5052791;28;20556;-68
2022/05/11 11:52:39;;;;;;;7.03;1.13;;;;;;;-142.75;58.50;75196.53;5052022;28;20105;-69
2022/05/11 11:55:27;;;;;;;6.95;1.58;;;;;;;-142.75;57.54;75182.75;5053369;28;20027;-68
2022/05/11 11:58:11;;;;;;;5.95;1.13;;;;;;;-142.75;58.76;75182.75;5053056;28;20032;-71
2022/05/11 12:00:46;;;;;;;5.30;1.27;;;;;;;-142.75;59.13;75161.13;5053161;28;20511;-69
2022/05/11 12:03:23;;;;;;;5.00;1.48;;;;;;;-142.75;57.76;75168.97;5053003;28;20032;-70
2022/05/11 12:05:55;;;;;;;4.57;1.30;;;;;;;-142.75;58.52;75167.00;5053039;28;20609;-68
2022/05/11 12:16:58;;;;;;;5.15;1.15;;;;;;;-142.75;59.90;75119.78;5053252;28;20044;-72